サンホセ/フアン・サンタ・マリア の空港の天気 - METARとTAF

フアン・サンタ・マリア国際空港 ( MROC / SJO ) - コスタリカ サンホセ
飛行場実況気象(Metar)
観測時間07/22 12:00 CST (07/22 18:00 UTC)
風向・風速東北東 6m/s
視程10km以上
天気現象
全天の4割程度の雲 雲底高度 1070m
全天の4割程度の雲 雲底高度 3960m
気温28℃
湿度55%
気圧1015hPa
METARMROC 221800Z 07012KT 040V110 9999 SCT035 SCT130 28/18 A2997 NOSIG
過去の天気等 Google飛行場航空写真 Wunderground天気予報

過去48時間のMETAR

飛行場予報(TAF)
発表時間: 7/22 11:00 CST (7/22 17:00 UTC)
予報対象時間: 22日12時 CST ~ 23日12時 CST
風向・風速東 4m/s
視程10km以上
少しの雲 雲底高度 910m
全天の8割程度の雲 雲底高度 3350m
22日13時 CST ~ 22日17時 CST に一時的に
風向・風速西南西 4m/s
天気現象
全天の4割程度の雲 雲底高度 910m
MROC 221700Z 2218/2318 10008KT 9999 FEW030 BKN110 TX28/2218Z TN19/2310Z
TEMPO 2219/2223 25007KT RA SCT030